sensor_id;sensor_type;location;lat;lon;timestamp;P1;durP1;ratioP1;P2;durP2;ratioP2
76380;SDS011;65202;52.520;10.528;2023-04-25T00:00:22;17.83;;;5.90;;
76380;SDS011;65202;52.520;10.528;2023-04-25T00:02:49;12.20;;;5.25;;
76380;SDS011;65202;52.520;10.528;2023-04-25T00:05:17;15.38;;;6.30;;
76380;SDS011;65202;52.520;10.528;2023-04-25T00:07:45;13.73;;;6.05;;
76380;SDS011;65202;52.520;10.528;2023-04-25T00:10:12;16.58;;;6.20;;
76380;SDS011;65202;52.520;10.528;2023-04-25T00:12:39;15.00;;;5.85;;
76380;SDS011;65202;52.520;10.528;2023-04-25T00:15:08;21.52;;;6.70;;
76380;SDS011;65202;52.520;10.528;2023-04-25T00:17:36;17.90;;;5.80;;
76380;SDS011;65202;52.520;10.528;2023-04-25T00:20:05;24.75;;;7.28;;
76380;SDS011;65202;52.520;10.528;2023-04-25T00:22:36;19.98;;;7.07;;
76380;SDS011;65202;52.520;10.528;2023-04-25T00:25:06;20.77;;;6.68;;
76380;SDS011;65202;52.520;10.528;2023-04-25T00:27:34;19.27;;;6.80;;
76380;SDS011;65202;52.520;10.528;2023-04-25T00:30:01;18.48;;;6.80;;
76380;SDS011;65202;52.520;10.528;2023-04-25T00:32:29;17.63;;;6.78;;
76380;SDS011;65202;52.520;10.528;2023-04-25T00:34:56;22.58;;;7.38;;
76380;SDS011;65202;52.520;10.528;2023-04-25T00:37:24;14.15;;;6.10;;
76380;SDS011;65202;52.520;10.528;2023-04-25T00:39:52;17.75;;;6.95;;
76380;SDS011;65202;52.520;10.528;2023-04-25T00:42:21;19.75;;;7.47;;
76380;SDS011;65202;52.520;10.528;2023-04-25T00:44:48;16.55;;;6.47;;
76380;SDS011;65202;52.520;10.528;2023-04-25T00:47:17;19.77;;;6.95;;
76380;SDS011;65202;52.520;10.528;2023-04-25T00:49:44;21.23;;;7.10;;
76380;SDS011;65202;52.520;10.528;2023-04-25T00:52:12;21.50;;;6.30;;
76380;SDS011;65202;52.520;10.528;2023-04-25T00:54:39;15.50;;;6.40;;
76380;SDS011;65202;52.520;10.528;2023-04-25T00:57:07;18.35;;;6.55;;
76380;SDS011;65202;52.520;10.528;2023-04-25T00:59:34;22.20;;;6.82;;
76380;SDS011;65202;52.520;10.528;2023-04-25T01:02:04;22.98;;;6.43;;
76380;SDS011;65202;52.520;10.528;2023-04-25T01:04:32;21.05;;;6.90;;
76380;SDS011;65202;52.520;10.528;2023-04-25T01:06:59;14.20;;;6.00;;
76380;SDS011;65202;52.520;10.528;2023-04-25T01:09:27;14.95;;;5.93;;
76380;SDS011;65202;52.520;10.528;2023-04-25T01:11:54;14.00;;;6.28;;
76380;SDS011;65202;52.520;10.528;2023-04-25T01:14:21;16.63;;;6.05;;
76380;SDS011;65202;52.520;10.528;2023-04-25T01:16:49;18.25;;;6.50;;
76380;SDS011;65202;52.520;10.528;2023-04-25T01:19:17;16.23;;;6.70;;
76380;SDS011;65202;52.520;10.528;2023-04-25T01:21:45;20.83;;;6.57;;
76380;SDS011;65202;52.520;10.528;2023-04-25T01:24:12;17.95;;;6.97;;
76380;SDS011;65202;52.520;10.528;2023-04-25T01:26:41;20.40;;;7.35;;
76380;SDS011;65202;52.520;10.528;2023-04-25T01:29:17;23.45;;;7.72;;
76380;SDS011;65202;52.520;10.528;2023-04-25T01:31:46;21.85;;;7.00;;
76380;SDS011;65202;52.520;10.528;2023-04-25T01:34:14;16.30;;;7.30;;
76380;SDS011;65202;52.520;10.528;2023-04-25T01:36:41;23.17;;;7.97;;
76380;SDS011;65202;52.520;10.528;2023-04-25T01:39:08;19.00;;;7.68;;
76380;SDS011;65202;52.520;10.528;2023-04-25T01:41:36;18.90;;;7.25;;
76380;SDS011;65202;52.520;10.528;2023-04-25T01:44:03;19.67;;;7.85;;
76380;SDS011;65202;52.520;10.528;2023-04-25T01:46:31;24.58;;;7.75;;
76380;SDS011;65202;52.520;10.528;2023-04-25T01:49:00;25.27;;;6.82;;
76380;SDS011;65202;52.520;10.528;2023-04-25T01:51:28;22.92;;;7.30;;
76380;SDS011;65202;52.520;10.528;2023-04-25T01:53:57;24.23;;;7.22;;
76380;SDS011;65202;52.520;10.528;2023-04-25T01:56:30;24.42;;;7.70;;
76380;SDS011;65202;52.520;10.528;2023-04-25T01:59:04;22.95;;;7.45;;
76380;SDS011;65202;52.520;10.528;2023-04-25T02:01:32;17.27;;;7.22;;
76380;SDS011;65202;52.520;10.528;2023-04-25T02:04:00;19.65;;;7.13;;
76380;SDS011;65202;52.520;10.528;2023-04-25T02:06:27;17.70;;;7.50;;
76380;SDS011;65202;52.520;10.528;2023-04-25T02:08:55;19.38;;;7.70;;
76380;SDS011;65202;52.520;10.528;2023-04-25T02:11:22;19.85;;;7.85;;
76380;SDS011;65202;52.520;10.528;2023-04-25T02:13:49;20.45;;;8.13;;
76380;SDS011;65202;52.520;10.528;2023-04-25T02:16:17;19.30;;;7.47;;
76380;SDS011;65202;52.520;10.528;2023-04-25T02:18:44;20.00;;;8.10;;
76380;SDS011;65202;52.520;10.528;2023-04-25T02:21:12;18.75;;;8.43;;
76380;SDS011;65202;52.520;10.528;2023-04-25T02:23:39;22.77;;;8.70;;
76380;SDS011;65202;52.520;10.528;2023-04-25T02:26:06;22.67;;;8.18;;
76380;SDS011;65202;52.520;10.528;2023-04-25T02:28:33;19.55;;;8.68;;
76380;SDS011;65202;52.520;10.528;2023-04-25T02:31:01;20.33;;;8.52;;
76380;SDS011;65202;52.520;10.528;2023-04-25T02:33:28;27.02;;;9.40;;
76380;SDS011;65202;52.520;10.528;2023-04-25T02:35:55;22.63;;;9.32;;
76380;SDS011;65202;52.520;10.528;2023-04-25T02:38:22;23.48;;;9.77;;
76380;SDS011;65202;52.520;10.528;2023-04-25T02:40:49;27.70;;;9.68;;
76380;SDS011;65202;52.520;10.528;2023-04-25T02:43:17;26.55;;;10.68;;
76380;SDS011;65202;52.520;10.528;2023-04-25T02:45:44;28.27;;;10.50;;
76380;SDS011;65202;52.520;10.528;2023-04-25T02:48:11;23.33;;;10.50;;
76380;SDS011;65202;52.520;10.528;2023-04-25T02:50:38;27.67;;;10.65;;
76380;SDS011;65202;52.520;10.528;2023-04-25T02:53:06;25.05;;;11.02;;
76380;SDS011;65202;52.520;10.528;2023-04-25T02:55:33;26.88;;;11.65;;
76380;SDS011;65202;52.520;10.528;2023-04-25T02:58:00;25.98;;;10.90;;
76380;SDS011;65202;52.520;10.528;2023-04-25T03:00:28;27.10;;;11.27;;
76380;SDS011;65202;52.520;10.528;2023-04-25T03:02:55;22.75;;;10.52;;
76380;SDS011;65202;52.520;10.528;2023-04-25T03:05:23;29.08;;;11.55;;
76380;SDS011;65202;52.520;10.528;2023-04-25T03:07:50;27.95;;;10.52;;
76380;SDS011;65202;52.520;10.528;2023-04-25T03:10:17;26.80;;;10.80;;
76380;SDS011;65202;52.520;10.528;2023-04-25T03:12:44;25.73;;;10.93;;
76380;SDS011;65202;52.520;10.528;2023-04-25T03:15:11;19.50;;;10.48;;
76380;SDS011;65202;52.520;10.528;2023-04-25T03:17:38;29.23;;;10.48;;
76380;SDS011;65202;52.520;10.528;2023-04-25T03:20:06;23.98;;;10.02;;
76380;SDS011;65202;52.520;10.528;2023-04-25T03:22:35;30.35;;;9.20;;
76380;SDS011;65202;52.520;10.528;2023-04-25T03:25:02;23.00;;;8.48;;
76380;SDS011;65202;52.520;10.528;2023-04-25T03:27:30;29.05;;;8.57;;
76380;SDS011;65202;52.520;10.528;2023-04-25T03:29:58;41.00;;;14.45;;
76380;SDS011;65202;52.520;10.528;2023-04-25T03:32:25;36.42;;;9.98;;
76380;SDS011;65202;52.520;10.528;2023-04-25T03:34:52;24.70;;;7.72;;
76380;SDS011;65202;52.520;10.528;2023-04-25T03:37:20;33.45;;;8.02;;
76380;SDS011;65202;52.520;10.528;2023-04-25T03:39:47;25.50;;;7.05;;
76380;SDS011;65202;52.520;10.528;2023-04-25T03:42:14;29.27;;;6.55;;
76380;SDS011;65202;52.520;10.528;2023-04-25T03:44:41;29.52;;;6.68;;
76380;SDS011;65202;52.520;10.528;2023-04-25T03:47:08;31.73;;;6.80;;
76380;SDS011;65202;52.520;10.528;2023-04-25T03:49:36;29.02;;;7.00;;
76380;SDS011;65202;52.520;10.528;2023-04-25T03:52:03;27.02;;;6.60;;
76380;SDS011;65202;52.520;10.528;2023-04-25T03:54:31;26.35;;;6.65;;
76380;SDS011;65202;52.520;10.528;2023-04-25T03:56:58;25.17;;;6.55;;
76380;SDS011;65202;52.520;10.528;2023-04-25T03:59:25;25.65;;;6.57;;
76380;SDS011;65202;52.520;10.528;2023-04-25T04:01:52;29.75;;;6.05;;
76380;SDS011;65202;52.520;10.528;2023-04-25T04:04:21;30.52;;;5.88;;
76380;SDS011;65202;52.520;10.528;2023-04-25T04:06:49;29.55;;;6.22;;
76380;SDS011;65202;52.520;10.528;2023-04-25T04:09:16;26.25;;;6.10;;
76380;SDS011;65202;52.520;10.528;2023-04-25T04:11:43;26.85;;;6.05;;
76380;SDS011;65202;52.520;10.528;2023-04-25T04:14:10;30.17;;;6.10;;
76380;SDS011;65202;52.520;10.528;2023-04-25T04:16:38;46.83;;;7.85;;
76380;SDS011;65202;52.520;10.528;2023-04-25T04:19:05;34.15;;;6.82;;
76380;SDS011;65202;52.520;10.528;2023-04-25T04:21:32;34.17;;;6.50;;
76380;SDS011;65202;52.520;10.528;2023-04-25T04:24:00;37.95;;;6.53;;
76380;SDS011;65202;52.520;10.528;2023-04-25T04:26:27;35.95;;;6.72;;
76380;SDS011;65202;52.520;10.528;2023-04-25T04:28:54;31.27;;;6.13;;
76380;SDS011;65202;52.520;10.528;2023-04-25T04:31:21;45.03;;;7.22;;
76380;SDS011;65202;52.520;10.528;2023-04-25T04:33:49;35.58;;;6.07;;
76380;SDS011;65202;52.520;10.528;2023-04-25T04:36:16;29.60;;;6.07;;
76380;SDS011;65202;52.520;10.528;2023-04-25T04:38:46;34.72;;;5.82;;
76380;SDS011;65202;52.520;10.528;2023-04-25T04:41:13;29.85;;;5.50;;
76380;SDS011;65202;52.520;10.528;2023-04-25T04:43:40;38.13;;;6.10;;
76380;SDS011;65202;52.520;10.528;2023-04-25T04:46:08;39.35;;;5.95;;
76380;SDS011;65202;52.520;10.528;2023-04-25T04:48:37;36.50;;;6.68;;
76380;SDS011;65202;52.520;10.528;2023-04-25T04:51:06;33.58;;;6.25;;
76380;SDS011;65202;52.520;10.528;2023-04-25T04:53:34;30.83;;;6.63;;
76380;SDS011;65202;52.520;10.528;2023-04-25T04:56:01;32.08;;;6.35;;
76380;SDS011;65202;52.520;10.528;2023-04-25T04:58:28;35.72;;;5.80;;
76380;SDS011;65202;52.520;10.528;2023-04-25T05:00:56;35.40;;;6.43;;
76380;SDS011;65202;52.520;10.528;2023-04-25T05:03:23;30.95;;;5.97;;
76380;SDS011;65202;52.520;10.528;2023-04-25T05:05:51;35.30;;;6.43;;
76380;SDS011;65202;52.520;10.528;2023-04-25T05:08:18;38.47;;;6.10;;
76380;SDS011;65202;52.520;10.528;2023-04-25T05:10:46;36.10;;;7.10;;
76380;SDS011;65202;52.520;10.528;2023-04-25T05:13:13;38.72;;;5.57;;
76380;SDS011;65202;52.520;10.528;2023-04-25T05:15:40;27.02;;;6.50;;
76380;SDS011;65202;52.520;10.528;2023-04-25T05:18:07;33.22;;;6.10;;
76380;SDS011;65202;52.520;10.528;2023-04-25T05:20:35;35.55;;;5.88;;
76380;SDS011;65202;52.520;10.528;2023-04-25T05:23:02;28.73;;;5.78;;
76380;SDS011;65202;52.520;10.528;2023-04-25T05:25:29;34.75;;;6.28;;
76380;SDS011;65202;52.520;10.528;2023-04-25T05:27:56;35.33;;;5.38;;
76380;SDS011;65202;52.520;10.528;2023-04-25T05:30:23;35.95;;;6.40;;
76380;SDS011;65202;52.520;10.528;2023-04-25T05:32:51;31.15;;;6.30;;
76380;SDS011;65202;52.520;10.528;2023-04-25T05:35:18;32.63;;;6.78;;
76380;SDS011;65202;52.520;10.528;2023-04-25T05:37:45;27.30;;;5.70;;
76380;SDS011;65202;52.520;10.528;2023-04-25T05:40:13;31.00;;;5.57;;
76380;SDS011;65202;52.520;10.528;2023-04-25T05:42:41;33.58;;;6.10;;
76380;SDS011;65202;52.520;10.528;2023-04-25T05:45:08;31.38;;;5.60;;
76380;SDS011;65202;52.520;10.528;2023-04-25T05:47:36;41.72;;;5.70;;
76380;SDS011;65202;52.520;10.528;2023-04-25T05:50:03;31.77;;;6.15;;
76380;SDS011;65202;52.520;10.528;2023-04-25T05:52:31;34.45;;;6.60;;
76380;SDS011;65202;52.520;10.528;2023-04-25T05:54:58;38.00;;;6.95;;
76380;SDS011;65202;52.520;10.528;2023-04-25T05:57:26;31.67;;;6.47;;
76380;SDS011;65202;52.520;10.528;2023-04-25T05:59:54;26.38;;;5.25;;
76380;SDS011;65202;52.520;10.528;2023-04-25T06:02:21;39.92;;;8.60;;
76380;SDS011;65202;52.520;10.528;2023-04-25T06:04:49;26.90;;;5.95;;
76380;SDS011;65202;52.520;10.528;2023-04-25T06:07:18;24.95;;;5.00;;
76380;SDS011;65202;52.520;10.528;2023-04-25T06:09:47;29.83;;;5.32;;
76380;SDS011;65202;52.520;10.528;2023-04-25T06:12:14;27.20;;;5.03;;
76380;SDS011;65202;52.520;10.528;2023-04-25T06:14:41;26.48;;;5.07;;
76380;SDS011;65202;52.520;10.528;2023-04-25T06:17:08;32.35;;;5.72;;
76380;SDS011;65202;52.520;10.528;2023-04-25T06:19:35;31.55;;;5.70;;
76380;SDS011;65202;52.520;10.528;2023-04-25T06:22:03;33.55;;;5.47;;
76380;SDS011;65202;52.520;10.528;2023-04-25T06:24:30;25.70;;;4.95;;
76380;SDS011;65202;52.520;10.528;2023-04-25T06:26:57;32.60;;;6.07;;
76380;SDS011;65202;52.520;10.528;2023-04-25T06:29:24;25.38;;;5.00;;
76380;SDS011;65202;52.520;10.528;2023-04-25T06:31:52;30.67;;;5.70;;
76380;SDS011;65202;52.520;10.528;2023-04-25T06:34:19;26.10;;;4.63;;
76380;SDS011;65202;52.520;10.528;2023-04-25T06:36:46;30.58;;;5.38;;
76380;SDS011;65202;52.520;10.528;2023-04-25T06:39:13;28.42;;;4.43;;
76380;SDS011;65202;52.520;10.528;2023-04-25T06:41:41;30.98;;;4.93;;
76380;SDS011;65202;52.520;10.528;2023-04-25T06:44:08;30.63;;;4.90;;
76380;SDS011;65202;52.520;10.528;2023-04-25T06:46:35;23.83;;;4.75;;
76380;SDS011;65202;52.520;10.528;2023-04-25T06:49:03;26.42;;;4.82;;
76380;SDS011;65202;52.520;10.528;2023-04-25T06:51:30;34.53;;;5.80;;
76380;SDS011;65202;52.520;10.528;2023-04-25T06:53:57;27.23;;;4.30;;
76380;SDS011;65202;52.520;10.528;2023-04-25T06:56:26;23.08;;;4.60;;
76380;SDS011;65202;52.520;10.528;2023-04-25T06:58:56;24.13;;;3.92;;
76380;SDS011;65202;52.520;10.528;2023-04-25T07:01:23;20.50;;;4.22;;
76380;SDS011;65202;52.520;10.528;2023-04-25T07:03:50;20.77;;;4.07;;
76380;SDS011;65202;52.520;10.528;2023-04-25T07:06:18;26.92;;;5.10;;
76380;SDS011;65202;52.520;10.528;2023-04-25T07:08:45;23.98;;;4.28;;
76380;SDS011;65202;52.520;10.528;2023-04-25T07:11:12;21.55;;;4.28;;
76380;SDS011;65202;52.520;10.528;2023-04-25T07:13:39;24.13;;;4.93;;
76380;SDS011;65202;52.520;10.528;2023-04-25T07:16:07;22.80;;;4.07;;
76380;SDS011;65202;52.520;10.528;2023-04-25T07:18:34;27.20;;;4.47;;
76380;SDS011;65202;52.520;10.528;2023-04-25T07:21:01;22.75;;;3.88;;
76380;SDS011;65202;52.520;10.528;2023-04-25T07:23:29;23.95;;;4.15;;
76380;SDS011;65202;52.520;10.528;2023-04-25T07:25:56;28.15;;;4.13;;
76380;SDS011;65202;52.520;10.528;2023-04-25T07:28:24;21.17;;;3.95;;
76380;SDS011;65202;52.520;10.528;2023-04-25T07:30:51;30.38;;;4.75;;
76380;SDS011;65202;52.520;10.528;2023-04-25T07:33:18;26.38;;;3.88;;
76380;SDS011;65202;52.520;10.528;2023-04-25T07:35:47;17.15;;;3.88;;
76380;SDS011;65202;52.520;10.528;2023-04-25T07:38:14;21.85;;;3.60;;
76380;SDS011;65202;52.520;10.528;2023-04-25T07:40:41;20.30;;;4.05;;
76380;SDS011;65202;52.520;10.528;2023-04-25T07:43:08;22.02;;;4.07;;
76380;SDS011;65202;52.520;10.528;2023-04-25T07:45:39;24.58;;;4.20;;
76380;SDS011;65202;52.520;10.528;2023-04-25T07:48:06;20.92;;;3.88;;
76380;SDS011;65202;52.520;10.528;2023-04-25T07:50:33;21.75;;;3.90;;
76380;SDS011;65202;52.520;10.528;2023-04-25T07:53:00;22.83;;;4.13;;
76380;SDS011;65202;52.520;10.528;2023-04-25T07:55:28;24.50;;;4.43;;
76380;SDS011;65202;52.520;10.528;2023-04-25T07:57:55;23.77;;;4.18;;
76380;SDS011;65202;52.520;10.528;2023-04-25T08:00:22;19.58;;;4.10;;
76380;SDS011;65202;52.520;10.528;2023-04-25T08:02:49;24.30;;;3.78;;
76380;SDS011;65202;52.520;10.528;2023-04-25T08:05:18;22.27;;;3.65;;
76380;SDS011;65202;52.520;10.528;2023-04-25T08:07:48;20.85;;;3.63;;
76380;SDS011;65202;52.520;10.528;2023-04-25T08:10:16;20.65;;;4.38;;
76380;SDS011;65202;52.520;10.528;2023-04-25T08:12:43;20.50;;;4.03;;
76380;SDS011;65202;52.520;10.528;2023-04-25T08:15:10;19.52;;;4.25;;
76380;SDS011;65202;52.520;10.528;2023-04-25T08:17:38;24.05;;;4.13;;
76380;SDS011;65202;52.520;10.528;2023-04-25T08:20:05;16.25;;;3.28;;
76380;SDS011;65202;52.520;10.528;2023-04-25T08:22:33;17.85;;;3.67;;
76380;SDS011;65202;52.520;10.528;2023-04-25T08:25:00;20.30;;;3.72;;
76380;SDS011;65202;52.520;10.528;2023-04-25T08:27:28;17.48;;;3.53;;
76380;SDS011;65202;52.520;10.528;2023-04-25T08:29:55;20.17;;;4.10;;
76380;SDS011;65202;52.520;10.528;2023-04-25T08:32:22;20.65;;;3.85;;
76380;SDS011;65202;52.520;10.528;2023-04-25T08:34:50;14.85;;;3.70;;
76380;SDS011;65202;52.520;10.528;2023-04-25T08:37:21;16.45;;;3.70;;
76380;SDS011;65202;52.520;10.528;2023-04-25T08:39:49;18.75;;;3.58;;
76380;SDS011;65202;52.520;10.528;2023-04-25T08:42:19;15.85;;;3.15;;
76380;SDS011;65202;52.520;10.528;2023-04-25T08:44:48;19.50;;;4.22;;
76380;SDS011;65202;52.520;10.528;2023-04-25T08:47:17;16.63;;;3.28;;
76380;SDS011;65202;52.520;10.528;2023-04-25T08:52:23;16.88;;;3.50;;
76380;SDS011;65202;52.520;10.528;2023-04-25T08:54:56;13.15;;;3.55;;
76380;SDS011;65202;52.520;10.528;2023-04-25T08:57:24;15.82;;;3.83;;
76380;SDS011;65202;52.520;10.528;2023-04-25T08:59:52;12.88;;;3.13;;
76380;SDS011;65202;52.520;10.528;2023-04-25T09:02:20;13.88;;;3.30;;
76380;SDS011;65202;52.520;10.528;2023-04-25T09:04:49;13.65;;;3.70;;
76380;SDS011;65202;52.520;10.528;2023-04-25T09:07:16;15.55;;;3.22;;
76380;SDS011;65202;52.520;10.528;2023-04-25T09:09:47;12.63;;;3.08;;
76380;SDS011;65202;52.520;10.528;2023-04-25T09:12:15;13.32;;;3.17;;
76380;SDS011;65202;52.520;10.528;2023-04-25T09:15:05;18.38;;;3.10;;
76380;SDS011;65202;52.520;10.528;2023-04-25T09:17:41;11.65;;;2.95;;
76380;SDS011;65202;52.520;10.528;2023-04-25T09:22:40;14.38;;;3.10;;
76380;SDS011;65202;52.520;10.528;2023-04-25T09:25:11;15.68;;;2.80;;
76380;SDS011;65202;52.520;10.528;2023-04-25T09:27:51;14.13;;;3.10;;
76380;SDS011;65202;52.520;10.528;2023-04-25T09:30:28;18.77;;;3.50;;
76380;SDS011;65202;52.520;10.528;2023-04-25T09:32:58;12.20;;;2.67;;
76380;SDS011;65202;52.520;10.528;2023-04-25T09:35:35;13.65;;;2.90;;
76380;SDS011;65202;52.520;10.528;2023-04-25T09:38:08;15.32;;;3.42;;
76380;SDS011;65202;52.520;10.528;2023-04-25T09:43:18;7.65;;;2.47;;
76380;SDS011;65202;52.520;10.528;2023-04-25T09:45:50;13.48;;;3.17;;
76380;SDS011;65202;52.520;10.528;2023-04-25T09:48:25;17.27;;;3.40;;
76380;SDS011;65202;52.520;10.528;2023-04-25T09:51:04;13.75;;;2.67;;
76380;SDS011;65202;52.520;10.528;2023-04-25T09:53:44;13.30;;;2.78;;
76380;SDS011;65202;52.520;10.528;2023-04-25T09:56:16;7.88;;;2.30;;
76380;SDS011;65202;52.520;10.528;2023-04-25T09:58:46;11.27;;;2.55;;
76380;SDS011;65202;52.520;10.528;2023-04-25T10:01:16;12.30;;;2.50;;
76380;SDS011;65202;52.520;10.528;2023-04-25T10:03:43;12.45;;;2.85;;
76380;SDS011;65202;52.520;10.528;2023-04-25T10:06:20;11.43;;;2.55;;
76380;SDS011;65202;52.520;10.528;2023-04-25T10:08:52;12.30;;;2.22;;
76380;SDS011;65202;52.520;10.528;2023-04-25T10:11:21;9.63;;;2.63;;
76380;SDS011;65202;52.520;10.528;2023-04-25T10:13:51;10.23;;;3.00;;
76380;SDS011;65202;52.520;10.528;2023-04-25T10:16:19;8.18;;;2.30;;
76380;SDS011;65202;52.520;10.528;2023-04-25T10:18:48;11.95;;;2.75;;
76380;SDS011;65202;52.520;10.528;2023-04-25T10:21:17;8.07;;;2.50;;
76380;SDS011;65202;52.520;10.528;2023-04-25T10:23:44;13.00;;;2.80;;
76380;SDS011;65202;52.520;10.528;2023-04-25T10:26:13;10.05;;;2.30;;
76380;SDS011;65202;52.520;10.528;2023-04-25T10:28:58;11.13;;;2.85;;
76380;SDS011;65202;52.520;10.528;2023-04-25T10:31:29;13.63;;;2.50;;
76380;SDS011;65202;52.520;10.528;2023-04-25T10:33:59;13.25;;;2.38;;
76380;SDS011;65202;52.520;10.528;2023-04-25T10:36:27;7.15;;;2.40;;
76380;SDS011;65202;52.520;10.528;2023-04-25T10:39:02;8.93;;;2.58;;
76380;SDS011;65202;52.520;10.528;2023-04-25T10:41:47;8.13;;;2.38;;
76380;SDS011;65202;52.520;10.528;2023-04-25T10:44:26;8.77;;;2.67;;
76380;SDS011;65202;52.520;10.528;2023-04-25T10:46:55;10.87;;;2.67;;
76380;SDS011;65202;52.520;10.528;2023-04-25T10:49:28;11.65;;;2.60;;
76380;SDS011;65202;52.520;10.528;2023-04-25T10:55:02;11.73;;;2.60;;
76380;SDS011;65202;52.520;10.528;2023-04-25T10:57:38;6.32;;;2.35;;
76380;SDS011;65202;52.520;10.528;2023-04-25T11:00:08;9.88;;;2.45;;
76380;SDS011;65202;52.520;10.528;2023-04-25T11:02:52;14.18;;;2.85;;
76380;SDS011;65202;52.520;10.528;2023-04-25T11:05:32;10.13;;;2.53;;
76380;SDS011;65202;52.520;10.528;2023-04-25T11:08:27;7.53;;;2.08;;
76380;SDS011;65202;52.520;10.528;2023-04-25T11:11:16;11.20;;;2.30;;
76380;SDS011;65202;52.520;10.528;2023-04-25T11:13:47;10.88;;;2.22;;
76380;SDS011;65202;52.520;10.528;2023-04-25T11:16:17;9.68;;;2.10;;
76380;SDS011;65202;52.520;10.528;2023-04-25T11:18:56;15.73;;;2.60;;
76380;SDS011;65202;52.520;10.528;2023-04-25T11:21:25;15.93;;;3.55;;
76380;SDS011;65202;52.520;10.528;2023-04-25T11:23:56;11.25;;;2.60;;
76380;SDS011;65202;52.520;10.528;2023-04-25T11:26:24;13.98;;;3.00;;
76380;SDS011;65202;52.520;10.528;2023-04-25T11:28:56;10.23;;;2.17;;
76380;SDS011;65202;52.520;10.528;2023-04-25T11:31:26;11.30;;;2.80;;
76380;SDS011;65202;52.520;10.528;2023-04-25T11:33:53;12.40;;;2.60;;
76380;SDS011;65202;52.520;10.528;2023-04-25T11:36:23;11.70;;;2.50;;
76380;SDS011;65202;52.520;10.528;2023-04-25T11:38:53;11.07;;;2.28;;
76380;SDS011;65202;52.520;10.528;2023-04-25T11:41:20;9.88;;;2.25;;
76380;SDS011;65202;52.520;10.528;2023-04-25T11:43:49;8.75;;;2.25;;
76380;SDS011;65202;52.520;10.528;2023-04-25T11:46:18;5.82;;;1.75;;
76380;SDS011;65202;52.520;10.528;2023-04-25T11:48:47;6.57;;;1.88;;
76380;SDS011;65202;52.520;10.528;2023-04-25T11:51:15;8.50;;;1.60;;
76380;SDS011;65202;52.520;10.528;2023-04-25T11:53:44;7.32;;;1.90;;
76380;SDS011;65202;52.520;10.528;2023-04-25T11:56:11;6.68;;;1.80;;
76380;SDS011;65202;52.520;10.528;2023-04-25T11:58:58;6.30;;;1.48;;
76380;SDS011;65202;52.520;10.528;2023-04-25T12:01:32;6.65;;;1.63;;
76380;SDS011;65202;52.520;10.528;2023-04-25T12:06:44;3.72;;;1.30;;
76380;SDS011;65202;52.520;10.528;2023-04-25T12:09:15;8.65;;;1.52;;
76380;SDS011;65202;52.520;10.528;2023-04-25T12:11:48;5.22;;;1.50;;
76380;SDS011;65202;52.520;10.528;2023-04-25T12:14:23;7.65;;;1.95;;
76380;SDS011;65202;52.520;10.528;2023-04-25T12:16:58;6.38;;;1.70;;
76380;SDS011;65202;52.520;10.528;2023-04-25T12:19:37;8.57;;;1.92;;
76380;SDS011;65202;52.520;10.528;2023-04-25T12:22:20;7.15;;;1.80;;
76380;SDS011;65202;52.520;10.528;2023-04-25T12:24:50;9.80;;;2.38;;
76380;SDS011;65202;52.520;10.528;2023-04-25T12:27:18;9.07;;;2.25;;
76380;SDS011;65202;52.520;10.528;2023-04-25T12:29:51;6.50;;;1.83;;
76380;SDS011;65202;52.520;10.528;2023-04-25T12:34:47;6.18;;;1.73;;
76380;SDS011;65202;52.520;10.528;2023-04-25T12:37:15;9.90;;;2.20;;
76380;SDS011;65202;52.520;10.528;2023-04-25T12:39:42;7.22;;;1.92;;
76380;SDS011;65202;52.520;10.528;2023-04-25T12:42:10;9.57;;;2.25;;
76380;SDS011;65202;52.520;10.528;2023-04-25T12:44:40;9.02;;;1.90;;
76380;SDS011;65202;52.520;10.528;2023-04-25T12:47:08;10.73;;;2.00;;
76380;SDS011;65202;52.520;10.528;2023-04-25T12:49:35;9.30;;;2.13;;
76380;SDS011;65202;52.520;10.528;2023-04-25T12:52:03;8.65;;;2.00;;
76380;SDS011;65202;52.520;10.528;2023-04-25T12:54:30;8.00;;;1.95;;
76380;SDS011;65202;52.520;10.528;2023-04-25T12:56:58;8.55;;;2.05;;
76380;SDS011;65202;52.520;10.528;2023-04-25T12:59:26;9.07;;;2.03;;
76380;SDS011;65202;52.520;10.528;2023-04-25T13:01:53;10.98;;;1.90;;
76380;SDS011;65202;52.520;10.528;2023-04-25T13:04:20;10.52;;;1.95;;
76380;SDS011;65202;52.520;10.528;2023-04-25T13:06:48;15.05;;;1.98;;
76380;SDS011;65202;52.520;10.528;2023-04-25T13:09:15;7.85;;;1.27;;
76380;SDS011;65202;52.520;10.528;2023-04-25T13:11:42;7.70;;;1.70;;
76380;SDS011;65202;52.520;10.528;2023-04-25T13:14:10;5.07;;;1.23;;
76380;SDS011;65202;52.520;10.528;2023-04-25T13:16:37;11.07;;;1.98;;
76380;SDS011;65202;52.520;10.528;2023-04-25T13:19:04;9.52;;;1.63;;
76380;SDS011;65202;52.520;10.528;2023-04-25T13:21:34;5.82;;;1.52;;
76380;SDS011;65202;52.520;10.528;2023-04-25T13:24:01;6.20;;;1.58;;
76380;SDS011;65202;52.520;10.528;2023-04-25T13:26:29;7.57;;;1.55;;
76380;SDS011;65202;52.520;10.528;2023-04-25T13:28:56;7.22;;;1.30;;
76380;SDS011;65202;52.520;10.528;2023-04-25T13:31:24;8.73;;;1.50;;
76380;SDS011;65202;52.520;10.528;2023-04-25T13:33:51;7.25;;;1.67;;
76380;SDS011;65202;52.520;10.528;2023-04-25T13:36:19;21.05;;;1.60;;
76380;SDS011;65202;52.520;10.528;2023-04-25T13:38:47;4.65;;;1.40;;
76380;SDS011;65202;52.520;10.528;2023-04-25T13:41:18;6.28;;;1.45;;
76380;SDS011;65202;52.520;10.528;2023-04-25T13:43:46;5.40;;;1.42;;
76380;SDS011;65202;52.520;10.528;2023-04-25T13:46:15;6.38;;;1.70;;
76380;SDS011;65202;52.520;10.528;2023-04-25T13:49:01;8.05;;;1.73;;
76380;SDS011;65202;52.520;10.528;2023-04-25T13:51:39;5.78;;;1.08;;
76380;SDS011;65202;52.520;10.528;2023-04-25T13:54:07;7.32;;;2.50;;
76380;SDS011;65202;52.520;10.528;2023-04-25T13:56:34;4.25;;;1.08;;
76380;SDS011;65202;52.520;10.528;2023-04-25T13:59:01;8.00;;;1.58;;
76380;SDS011;65202;52.520;10.528;2023-04-25T14:01:28;4.93;;;1.45;;
76380;SDS011;65202;52.520;10.528;2023-04-25T14:03:57;7.07;;;1.70;;
76380;SDS011;65202;52.520;10.528;2023-04-25T14:06:25;15.25;;;1.63;;
76380;SDS011;65202;52.520;10.528;2023-04-25T14:08:53;9.23;;;1.50;;
76380;SDS011;65202;52.520;10.528;2023-04-25T14:11:20;6.82;;;1.33;;
76380;SDS011;65202;52.520;10.528;2023-04-25T14:13:47;7.00;;;1.38;;
76380;SDS011;65202;52.520;10.528;2023-04-25T14:16:16;5.82;;;1.38;;
76380;SDS011;65202;52.520;10.528;2023-04-25T14:18:44;4.18;;;1.33;;
76380;SDS011;65202;52.520;10.528;2023-04-25T14:21:11;6.78;;;1.50;;
76380;SDS011;65202;52.520;10.528;2023-04-25T14:23:38;4.47;;;1.40;;
76380;SDS011;65202;52.520;10.528;2023-04-25T14:26:05;4.90;;;1.45;;
76380;SDS011;65202;52.520;10.528;2023-04-25T14:28:33;2.40;;;1.10;;
76380;SDS011;65202;52.520;10.528;2023-04-25T14:31:00;6.95;;;2.20;;
76380;SDS011;65202;52.520;10.528;2023-04-25T14:33:27;6.05;;;2.00;;
76380;SDS011;65202;52.520;10.528;2023-04-25T14:35:55;8.50;;;1.60;;
76380;SDS011;65202;52.520;10.528;2023-04-25T14:38:22;6.72;;;1.65;;
76380;SDS011;65202;52.520;10.528;2023-04-25T14:40:52;8.57;;;1.38;;
76380;SDS011;65202;52.520;10.528;2023-04-25T14:43:20;8.75;;;1.70;;
76380;SDS011;65202;52.520;10.528;2023-04-25T14:45:48;5.53;;;1.50;;
76380;SDS011;65202;52.520;10.528;2023-04-25T14:48:15;4.55;;;1.35;;